Time;durP1;ratioP1;P1;durP2;ratioP2;P2;SDS_P1;SDS_P2;PMS_P1;PMS_P2;Temp;Humidity;BMP_temperature;BMP_pressure;BME280_temperature;BME280_humidity;BME280_pressure;Samples;Min_cycle;Max_cycle;Signal;HPM_P1;HPM_P2
2022/09/19 00:01:30;;;;;;;0.60;0.57;;;19.60;64.50;;;;;;5053470;28;20207;-70
2022/09/19 00:04:27;;;;;;;0.75;0.75;;;19.70;64.60;;;;;;5037888;28;20190;-70
2022/09/19 00:06:55;;;;;;;0.40;0.40;;;19.70;64.70;;;;;;5052330;28;20238;-70
2022/09/19 00:09:27;;;;;;;1.40;0.85;;;19.70;64.60;;;;;;5037242;28;20191;-70
2022/09/19 00:11:55;;;;;;;0.60;0.60;;;19.60;64.50;;;;;;5036873;28;20214;-70
2022/09/19 00:14:27;;;;;;;0.57;0.57;;;19.60;64.50;;;;;;5037289;28;20183;-70
2022/09/19 00:17:03;;;;;;;0.60;0.60;;;19.60;64.50;;;;;;5054080;28;20180;-70
2022/09/19 00:19:29;;;;;;;0.65;0.60;;;19.60;64.50;;;;;;5052769;28;20209;-69
2022/09/19 00:21:58;;;;;;;0.70;0.70;;;19.60;64.50;;;;;;5034385;28;20281;-69
2022/09/19 00:27:12;;;;;;;0.70;0.70;;;19.60;64.60;;;;;;5038133;28;20242;-70
2022/09/19 00:29:41;;;;;;;0.93;0.77;;;19.60;64.70;;;;;;5040115;28;20189;-70
2022/09/19 00:32:11;;;;;;;0.52;0.52;;;19.70;64.80;;;;;;5039940;28;20199;-70
2022/09/19 00:34:43;;;;;;;1.42;0.77;;;19.60;64.70;;;;;;5036062;28;20198;-70
2022/09/19 00:37:11;;;;;;;0.80;0.80;;;19.70;64.70;;;;;;5040539;28;20183;-69
2022/09/19 00:39:37;;;;;;;0.88;0.70;;;19.70;64.60;;;;;;5040193;28;20187;-69
2022/09/19 00:42:03;;;;;;;0.70;0.70;;;19.70;64.70;;;;;;5040462;28;20203;-70
2022/09/19 00:44:29;;;;;;;0.70;0.70;;;19.60;64.50;;;;;;5057125;28;20194;-70
2022/09/19 00:47:24;;;;;;;0.93;0.70;;;19.60;64.60;;;;;;5040315;28;20313;-70
2022/09/19 00:49:54;;;;;;;2.05;0.88;;;19.60;64.60;;;;;;5040368;28;20190;-69
2022/09/19 00:52:48;;;;;;;0.80;0.70;;;19.70;64.80;;;;;;5039863;28;20203;-69
2022/09/19 00:55:16;;;;;;;1.42;0.70;;;19.70;64.90;;;;;;5026034;28;20195;-70
2022/09/19 00:57:55;;;;;;;0.90;0.90;;;19.70;64.80;;;;;;5042343;28;20583;-70
2022/09/19 01:00:21;;;;;;;1.23;0.70;;;19.60;64.70;;;;;;5023971;28;20202;-70
2022/09/19 01:02:48;;;;;;;0.80;0.80;;;19.70;64.80;;;;;;5024146;28;20266;-70
2022/09/19 01:05:16;;;;;;;1.33;0.85;;;19.60;64.70;;;;;;5057475;28;20185;-70
2022/09/19 01:08:17;;;;;;;0.85;0.63;;;19.60;64.80;;;;;;5052479;28;20773;-70
2022/09/19 01:11:24;;;;;;;1.10;0.77;;;19.70;65.10;;;;;;5039783;28;20179;-70
2022/09/19 01:14:26;;;;;;;1.10;0.60;;;19.60;64.90;;;;;;5022334;28;20195;-70
2022/09/19 01:17:04;;;;;;;1.27;0.80;;;19.60;64.60;;;;;;5024115;28;20187;-70
2022/09/19 01:19:59;;;;;;;0.60;0.60;;;19.60;64.90;;;;;;5040402;28;20195;-70
2022/09/19 01:22:52;;;;;;;0.60;0.60;;;19.60;65.00;;;;;;5039595;28;20206;-70
2022/09/19 01:25:59;;;;;;;0.75;0.63;;;19.60;64.80;;;;;;5040132;28;20199;-70
2022/09/19 01:28:50;;;;;;;0.70;0.70;;;19.60;64.80;;;;;;5052945;28;20719;-70
2022/09/19 01:31:27;;;;;;;0.80;0.80;;;19.70;64.90;;;;;;5041613;28;20213;-70
2022/09/19 01:34:05;;;;;;;0.70;0.50;;;19.60;64.90;;;;;;5026353;28;20175;-70
2022/09/19 01:36:42;;;;;;;0.50;0.50;;;19.70;65.10;;;;;;5039071;28;20606;-70
2022/09/19 01:39:11;;;;;;;1.58;0.55;;;19.60;64.70;;;;;;5054536;28;20190;-70
2022/09/19 01:41:53;;;;;;;0.50;0.50;;;19.60;64.90;;;;;;5039693;28;20209;-70
2022/09/19 01:44:22;;;;;;;0.47;0.47;;;19.70;65.00;;;;;;5022852;28;20179;-70
2022/09/19 01:47:23;;;;;;;0.80;0.75;;;19.60;64.90;;;;;;5055755;28;20203;-70
2022/09/19 01:50:08;;;;;;;0.60;0.60;;;19.60;64.90;;;;;;5039101;28;20183;-70
2022/09/19 01:52:48;;;;;;;0.50;0.50;;;19.60;64.80;;;;;;5039154;28;20203;-69
2022/09/19 01:55:32;;;;;;;0.50;0.50;;;19.60;64.80;;;;;;5055725;28;20183;-70
2022/09/19 01:58:12;;;;;;;0.50;0.50;;;19.60;64.90;;;;;;5039545;28;20654;-70
2022/09/19 02:00:55;;;;;;;0.57;0.57;;;19.60;64.90;;;;;;5039217;28;20183;-70
2022/09/19 02:03:48;;;;;;;0.40;0.40;;;19.60;64.90;;;;;;5055532;28;20190;-70
2022/09/19 02:06:42;;;;;;;0.40;0.40;;;19.60;65.00;;;;;;5039288;28;20223;-70
2022/09/19 02:09:22;;;;;;;0.80;0.80;;;19.60;64.90;;;;;;5055198;28;20183;-70
2022/09/19 02:11:52;;;;;;;0.57;0.57;;;19.60;64.80;;;;;;5038978;28;20756;-70
2022/09/19 02:14:24;;;;;;;0.60;0.60;;;19.60;65.00;;;;;;5055318;28;20183;-70
2022/09/19 02:17:15;;;;;;;0.40;0.40;;;19.60;64.90;;;;;;5054641;28;20551;-70
2022/09/19 02:20:28;;;;;;;0.47;0.47;;;19.60;65.00;;;;;;5038279;28;20239;-70
2022/09/19 02:23:18;;;;;;;0.40;0.40;;;19.60;64.90;;;;;;5035265;28;20223;-70
2022/09/19 02:25:46;;;;;;;0.43;0.43;;;19.60;64.90;;;;;;5054977;28;20329;-70
2022/09/19 02:28:19;;;;;;;0.40;0.40;;;19.60;64.90;;;;;;5039327;28;20216;-70
2022/09/19 02:30:46;;;;;;;0.40;0.40;;;19.60;65.00;;;;;;5054992;28;20168;-69
2022/09/19 02:33:12;;;;;;;0.30;0.30;;;19.60;65.00;;;;;;5037821;28;20238;-70
2022/09/19 02:35:55;;;;;;;0.43;0.40;;;19.60;64.90;;;;;;5055541;28;20199;-70
2022/09/19 02:38:24;;;;;;;2.10;0.70;;;19.60;65.00;;;;;;5054731;28;20187;-69
2022/09/19 02:41:21;;;;;;;0.50;0.50;;;19.50;64.80;;;;;;5037727;28;20241;-70
2022/09/19 02:44:28;;;;;;;0.40;0.40;;;19.60;64.90;;;;;;5054671;28;20218;-70
2022/09/19 02:47:27;;;;;;;0.40;0.40;;;19.50;64.80;;;;;;5053261;28;20266;-70
2022/09/19 02:50:16;;;;;;;0.80;0.50;;;19.60;65.00;;;;;;5038174;28;20183;-70
2022/09/19 02:52:45;;;;;;;0.50;0.50;;;19.50;64.80;;;;;;5036040;28;20209;-69
2022/09/19 02:55:25;;;;;;;0.40;0.40;;;19.50;64.70;;;;;;5039017;28;20176;-70
2022/09/19 02:57:58;;;;;;;0.70;0.70;;;19.50;64.70;;;;;;5037878;28;20202;-70
2022/09/19 03:00:26;;;;;;;0.60;0.60;;;19.50;64.70;;;;;;5037940;28;20179;-70
2022/09/19 03:04:11;;;;;;;0.60;0.52;;;19.50;64.70;;;;;;5037217;28;20214;-69
2022/09/19 03:05:53;;;;;;;0.40;0.38;;;19.50;64.70;;;;;;5038727;28;20616;-70
2022/09/19 03:08:24;;;;;;;0.50;0.40;;;19.50;64.90;;;;;;5037598;28;20195;-70
2022/09/19 03:10:58;;;;;;;0.50;0.50;;;19.50;64.80;;;;;;5054445;28;20175;-70
2022/09/19 03:13:33;;;;;;;0.50;0.50;;;19.50;64.90;;;;;;5037027;28;20175;-69
2022/09/19 03:16:07;;;;;;;0.40;0.40;;;19.50;64.80;;;;;;5036905;28;20198;-69
2022/09/19 03:18:38;;;;;;;0.52;0.52;;;19.50;64.70;;;;;;5054193;28;20186;-69
2022/09/19 03:21:09;;;;;;;0.47;0.47;;;19.50;64.60;;;;;;5037096;28;20222;-70
2022/09/19 03:23:46;;;;;;;0.47;0.40;;;19.50;64.80;;;;;;5037157;28;20187;-70
2022/09/19 03:26:25;;;;;;;1.00;0.60;;;19.50;64.60;;;;;;5054234;28;20274;-70
2022/09/19 03:28:54;;;;;;;0.50;0.50;;;19.50;64.60;;;;;;5053727;28;20274;-69
2022/09/19 03:31:22;;;;;;;0.70;0.60;;;19.40;64.70;;;;;;5054292;28;20203;-70
2022/09/19 03:33:51;;;;;;;1.13;0.40;;;19.50;64.80;;;;;;5037379;28;20207;-70
2022/09/19 03:36:18;;;;;;;0.52;0.52;;;19.50;64.70;;;;;;5037196;28;20214;-70
2022/09/19 03:38:44;;;;;;;0.50;0.50;;;19.40;64.70;;;;;;5036991;28;20218;-70
2022/09/19 03:41:19;;;;;;;0.32;0.32;;;19.50;64.90;;;;;;5037931;28;20207;-70
2022/09/19 03:43:46;;;;;;;1.08;0.52;;;19.50;65.50;;;;;;5037294;28;20190;-69
2022/09/19 03:46:17;;;;;;;0.90;0.60;;;19.40;64.60;;;;;;5053411;28;20218;-70
2022/09/19 03:48:46;;;;;;;0.70;0.50;;;19.40;64.70;;;;;;5036939;28;20266;-70
2022/09/19 03:51:17;;;;;;;0.40;0.40;;;19.50;64.70;;;;;;5036880;28;20249;-70
2022/09/19 03:53:43;;;;;;;0.50;0.50;;;19.40;64.50;;;;;;5037133;28;20175;-70
2022/09/19 03:56:11;;;;;;;0.52;0.50;;;19.40;64.40;;;;;;5036696;28;20187;-70
2022/09/19 03:58:39;;;;;;;0.98;0.50;;;19.40;64.40;;;;;;5052833;28;20175;-70
2022/09/19 04:01:06;;;;;;;0.85;0.60;;;19.40;64.50;;;;;;5036166;28;20227;-69
2022/09/19 04:03:35;;;;;;;0.50;0.50;;;19.40;64.50;;;;;;5036471;28;20194;-69
2022/09/19 04:06:03;;;;;;;0.50;0.50;;;19.40;64.40;;;;;;5036796;28;20179;-70
2022/09/19 04:08:28;;;;;;;2.05;0.50;;;19.40;64.70;;;;;;5020279;28;20202;-70
2022/09/19 04:10:54;;;;;;;0.50;0.50;;;19.40;64.40;;;;;;5053567;28;20194;-70
2022/09/19 04:13:21;;;;;;;0.80;0.60;;;19.40;64.60;;;;;;5037100;28;20313;-70
2022/09/19 04:15:49;;;;;;;0.40;0.40;;;19.40;64.60;;;;;;5036855;28;20210;-70
2022/09/19 04:18:17;;;;;;;0.43;0.32;;;19.40;64.60;;;;;;5037044;28;20210;-70
2022/09/19 04:20:44;;;;;;;0.45;0.40;;;19.40;64.50;;;;;;5035953;28;20183;-69
2022/09/19 04:23:40;;;;;;;0.57;0.57;;;19.40;64.60;;;;;;5035468;28;20199;-69
2022/09/19 04:26:36;;;;;;;0.77;0.50;;;19.40;64.50;;;;;;5027150;28;20258;-69
2022/09/19 04:29:07;;;;;;;0.82;0.57;;;19.40;64.40;;;;;;5036407;28;20183;-69
2022/09/19 04:31:40;;;;;;;0.95;0.50;;;19.40;64.40;;;;;;5034317;28;20202;-69
2022/09/19 04:34:13;;;;;;;0.70;0.63;;;19.40;64.40;;;;;;5034403;28;20183;-69
2022/09/19 04:36:41;;;;;;;0.52;0.40;;;19.40;64.60;;;;;;5033639;28;20259;-69
2022/09/19 04:39:07;;;;;;;0.75;0.70;;;19.40;64.60;;;;;;5017532;28;20198;-69
2022/09/19 04:41:38;;;;;;;0.40;0.40;;;19.40;64.60;;;;;;5051982;28;20234;-70
2022/09/19 04:44:06;;;;;;;0.50;0.50;;;19.40;64.50;;;;;;5050474;28;20187;-70
2022/09/19 04:46:52;;;;;;;0.47;0.40;;;19.40;64.60;;;;;;5049645;28;20215;-69
2022/09/19 04:49:17;;;;;;;1.10;0.60;;;19.40;64.40;;;;;;5018704;28;20190;-70
2022/09/19 04:51:45;;;;;;;1.05;0.68;;;19.40;64.60;;;;;;5035672;28;20238;-69
2022/09/19 04:54:11;;;;;;;1.15;0.90;;;19.40;64.60;;;;;;5034810;28;20215;-69
2022/09/19 04:56:38;;;;;;;0.75;0.75;;;19.40;64.40;;;;;;5034052;28;20194;-69
2022/09/19 04:59:05;;;;;;;1.20;0.80;;;19.40;64.50;;;;;;5050712;28;20214;-69
2022/09/19 05:01:32;;;;;;;0.80;0.80;;;19.40;64.40;;;;;;5033710;28;20203;-69
2022/09/19 05:03:58;;;;;;;1.05;0.85;;;19.40;64.40;;;;;;5033769;28;20187;-69
2022/09/19 05:06:28;;;;;;;1.10;1.00;;;19.40;64.50;;;;;;5031984;28;20222;-69
2022/09/19 05:08:55;;;;;;;1.25;1.00;;;19.40;64.40;;;;;;5034244;28;20190;-70
2022/09/19 05:11:30;;;;;;;2.28;1.20;;;19.40;64.50;;;;;;5034908;28;20195;-71
2022/09/19 05:13:55;;;;;;;1.63;1.52;;;19.40;64.60;;;;;;5039444;28;20186;-70
2022/09/19 05:16:24;;;;;;;1.52;1.40;;;19.40;64.60;;;;;;5039660;28;20202;-70
2022/09/19 05:18:56;;;;;;;1.50;1.40;;;19.40;64.60;;;;;;5038793;28;20217;-70
2022/09/19 05:21:22;;;;;;;1.58;1.48;;;19.40;64.60;;;;;;5039620;28;20214;-70
2022/09/19 05:23:49;;;;;;;3.10;1.90;;;19.40;64.50;;;;;;5055873;28;20199;-70
2022/09/19 05:26:16;;;;;;;1.75;1.65;;;19.40;64.60;;;;;;5055982;28;20206;-70
2022/09/19 05:28:46;;;;;;;2.42;1.80;;;19.30;64.50;;;;;;5038810;28;20187;-70
2022/09/19 05:31:18;;;;;;;3.67;1.83;;;19.40;64.60;;;;;;5039109;28;20631;-70
2022/09/19 05:33:47;;;;;;;1.65;1.52;;;19.40;64.60;;;;;;5038028;28;20274;-70
2022/09/19 05:36:20;;;;;;;1.63;1.52;;;19.30;64.30;;;;;;5054500;28;20187;-70
2022/09/19 05:39:12;;;;;;;1.42;1.30;;;19.40;64.60;;;;;;5047767;28;20198;-70
2022/09/19 05:41:58;;;;;;;1.75;1.63;;;19.30;64.20;;;;;;5054389;28;20318;-71
2022/09/19 05:44:26;;;;;;;1.90;1.80;;;19.30;64.10;;;;;;5055886;28;20183;-70
2022/09/19 05:46:57;;;;;;;2.55;1.90;;;19.30;64.40;;;;;;5056427;28;20258;-70
2022/09/19 05:49:23;;;;;;;2.78;1.73;;;19.30;64.50;;;;;;5040818;28;20210;-70
2022/09/19 05:51:56;;;;;;;1.80;1.70;;;19.30;64.40;;;;;;5059603;28;20267;-70
2022/09/19 05:54:25;;;;;;;2.35;1.70;;;19.30;64.30;;;;;;5053480;28;20178;-71
2022/09/19 05:57:19;;;;;;;2.22;1.95;;;19.30;64.50;;;;;;5038169;28;20194;-70
2022/09/19 05:59:45;;;;;;;1.60;1.50;;;19.30;64.20;;;;;;5037815;28;20207;-71
2022/09/19 06:02:10;;;;;;;1.70;1.60;;;19.30;64.20;;;;;;5038813;28;20290;-70
2022/09/19 06:04:49;;;;;;;2.58;1.73;;;19.30;64.20;;;;;;5037291;28;20179;-70
2022/09/19 06:07:15;;;;;;;2.45;1.83;;;19.30;64.20;;;;;;5054131;28;20215;-70
2022/09/19 06:09:44;;;;;;;1.98;1.80;;;19.30;64.20;;;;;;5053970;28;20187;-70
2022/09/19 06:12:11;;;;;;;2.55;2.00;;;19.30;64.10;;;;;;5053686;28;20203;-70
2022/09/19 06:14:38;;;;;;;1.92;1.80;;;19.30;64.30;;;;;;5053745;28;20191;-70
2022/09/19 06:17:05;;;;;;;1.80;1.70;;;19.30;64.30;;;;;;5070565;28;20179;-70
2022/09/19 06:19:48;;;;;;;1.70;1.33;;;19.30;64.40;;;;;;5037407;28;20171;-70
2022/09/19 06:22:21;;;;;;;1.92;1.70;;;19.30;64.30;;;;;;5038369;28;20203;-70
2022/09/19 06:24:50;;;;;;;1.75;1.60;;;19.30;64.40;;;;;;5036255;28;20625;-70
2022/09/19 06:27:16;;;;;;;3.00;1.98;;;19.30;64.20;;;;;;5038259;28;20306;-70
2022/09/19 06:29:44;;;;;;;2.10;1.90;;;19.30;64.20;;;;;;5037682;28;20191;-70
2022/09/19 06:32:39;;;;;;;1.80;1.70;;;19.30;64.20;;;;;;5037127;28;20261;-70
2022/09/19 06:35:18;;;;;;;2.80;1.90;;;19.30;64.10;;;;;;5053565;28;20190;-70
2022/09/19 06:37:45;;;;;;;2.28;1.60;;;19.30;64.10;;;;;;5036915;28;20607;-71
2022/09/19 06:40:11;;;;;;;2.40;1.75;;;19.30;64.20;;;;;;5020352;28;20183;-70
2022/09/19 06:43:01;;;;;;;2.30;1.85;;;19.30;65.20;;;;;;5051295;28;20298;-70
2022/09/19 06:45:48;;;;;;;2.15;1.95;;;19.30;64.30;;;;;;5035878;28;20221;-70
2022/09/19 06:48:17;;;;;;;2.03;1.73;;;19.30;64.20;;;;;;5053779;28;20230;-70
2022/09/19 06:51:06;;;;;;;2.60;2.17;;;19.30;64.30;;;;;;5033438;28;20218;-70
2022/09/19 06:53:31;;;;;;;2.97;2.15;;;19.30;64.20;;;;;;5036418;28;20270;-70
2022/09/19 06:56:02;;;;;;;2.00;1.80;;;19.30;64.10;;;;;;5037133;28;20187;-71
2022/09/19 06:58:28;;;;;;;1.90;1.80;;;19.30;64.20;;;;;;5036927;28;20183;-70
2022/09/19 07:00:54;;;;;;;2.70;2.45;;;19.30;64.20;;;;;;5036202;28;20183;-70
2022/09/19 07:03:21;;;;;;;2.10;1.90;;;19.30;64.20;;;;;;5052713;28;20190;-70
2022/09/19 07:05:59;;;;;;;3.05;1.80;;;19.30;64.40;;;;;;5054742;28;20673;-70
2022/09/19 07:08:30;;;;;;;2.17;1.98;;;19.30;64.30;;;;;;5032642;28;20230;-70
2022/09/19 07:10:58;;;;;;;2.97;2.20;;;19.30;64.20;;;;;;5016350;28;20200;-70
2022/09/19 07:13:23;;;;;;;2.42;2.22;;;19.30;64.30;;;;;;5033405;28;20242;-70
2022/09/19 07:16:03;;;;;;;2.20;1.98;;;19.30;64.30;;;;;;5049628;28;20172;-70
2022/09/19 07:18:31;;;;;;;2.05;1.95;;;19.30;64.20;;;;;;5049428;28;20179;-70
2022/09/19 07:21:00;;;;;;;3.90;2.30;;;19.30;64.40;;;;;;5032691;28;20269;-70
2022/09/19 07:23:39;;;;;;;2.50;2.30;;;19.30;64.20;;;;;;5032815;28;20202;-70
2022/09/19 07:26:17;;;;;;;4.25;2.58;;;19.30;64.20;;;;;;5049113;28;20172;-70
2022/09/19 07:28:43;;;;;;;3.20;2.83;;;19.30;64.20;;;;;;5032890;28;20191;-70
2022/09/19 07:31:09;;;;;;;3.15;2.67;;;19.30;64.10;;;;;;5032280;28;20211;-70
2022/09/19 07:33:38;;;;;;;3.67;2.70;;;19.30;64.10;;;;;;5032708;28;20188;-70
2022/09/19 07:36:06;;;;;;;3.38;2.55;;;19.30;64.30;;;;;;5032490;28;20184;-70
2022/09/19 07:38:34;;;;;;;2.58;2.38;;;19.30;64.10;;;;;;5032530;28;20180;-70
2022/09/19 07:41:20;;;;;;;4.55;2.50;;;19.30;64.40;;;;;;5025956;28;20208;-70
2022/09/19 07:44:05;;;;;;;2.65;2.30;;;19.30;64.20;;;;;;5032447;28;20177;-70
2022/09/19 07:50:02;;;;;;;3.58;2.88;;;19.30;64.10;;;;;;5024153;28;20191;-70
2022/09/19 07:52:40;;;;;;;3.08;2.35;;;19.30;64.10;;;;;;5031171;28;20654;-70
2022/09/19 07:55:12;;;;;;;3.35;2.60;;;19.30;64.30;;;;;;5032135;28;20179;-70
2022/09/19 07:57:39;;;;;;;3.10;2.58;;;19.30;64.30;;;;;;5032638;28;20188;-71
2022/09/19 08:00:07;;;;;;;2.90;2.65;;;19.30;64.20;;;;;;5032070;28;20180;-71
2022/09/19 08:02:54;;;;;;;3.22;2.70;;;19.30;64.30;;;;;;5016594;28;20216;-70
2022/09/19 08:05:20;;;;;;;2.90;2.45;;;19.30;64.20;;;;;;5016007;28;20226;-70
2022/09/19 08:07:47;;;;;;;2.90;2.58;;;19.30;64.10;;;;;;5016090;28;20290;-70
2022/09/19 08:10:15;;;;;;;2.83;2.28;;;19.30;64.20;;;;;;5032223;28;20227;-70
2022/09/19 08:12:45;;;;;;;2.90;2.38;;;19.30;64.20;;;;;;5031894;28;20200;-70
2022/09/19 08:15:15;;;;;;;2.78;2.50;;;19.30;64.10;;;;;;5016610;28;20195;-71
2022/09/19 08:18:14;;;;;;;3.92;2.72;;;19.30;64.20;;;;;;5016485;28;20242;-70
2022/09/19 08:20:41;;;;;;;2.63;2.33;;;19.30;64.10;;;;;;5049030;28;20180;-70
2022/09/19 08:23:17;;;;;;;2.60;2.40;;;19.30;64.20;;;;;;5031975;28;20299;-70
2022/09/19 08:25:50;;;;;;;2.97;2.50;;;19.30;64.20;;;;;;5032511;28;20188;-70
2022/09/19 08:28:21;;;;;;;3.05;2.20;;;19.30;64.20;;;;;;5016149;28;20211;-70
2022/09/19 08:30:50;;;;;;;2.47;2.28;;;19.30;64.20;;;;;;5015803;28;20180;-70
2022/09/19 08:33:18;;;;;;;2.72;2.35;;;19.30;64.20;;;;;;5032525;28;20180;-70
2022/09/19 08:35:44;;;;;;;3.20;2.67;;;19.30;64.20;;;;;;5032413;28;20202;-71
2022/09/19 08:38:21;;;;;;;2.92;2.70;;;19.30;64.20;;;;;;5032711;28;20176;-71
2022/09/19 08:41:07;;;;;;;3.00;2.10;;;19.30;64.10;;;;;;5031932;28;20187;-70
2022/09/19 08:43:49;;;;;;;2.40;2.15;;;19.30;64.20;;;;;;5015596;28;20180;-70
2022/09/19 08:46:33;;;;;;;2.83;2.20;;;19.30;64.20;;;;;;5032161;28;20198;-71
2022/09/19 08:49:08;;;;;;;2.60;1.98;;;19.30;64.20;;;;;;5034936;28;20184;-71
2022/09/19 08:52:11;;;;;;;3.05;2.17;;;19.30;64.10;;;;;;5035923;28;20203;-70
2022/09/19 08:54:49;;;;;;;2.53;2.25;;;19.30;64.10;;;;;;5035823;28;20175;-70
2022/09/19 08:57:38;;;;;;;3.17;2.80;;;19.30;64.10;;;;;;5020421;28;20199;-70
2022/09/19 09:00:17;;;;;;;2.90;2.60;;;19.30;64.10;;;;;;5019801;28;20180;-70
2022/09/19 09:03:07;;;;;;;2.92;2.58;;;19.30;64.10;;;;;;5035959;28;20208;-70
2022/09/19 09:05:57;;;;;;;2.97;2.53;;;19.30;64.10;;;;;;5020101;28;20660;-70
2022/09/19 09:09:27;;;;;;;3.10;2.80;;;19.30;64.10;;;;;;5047929;28;20199;-71
2022/09/19 09:12:19;;;;;;;2.60;2.40;;;19.30;64.10;;;;;;5055496;28;20241;-70
2022/09/19 09:15:28;;;;;;;4.93;2.22;;;19.40;64.30;;;;;;5039522;28;20183;-70
2022/09/19 09:18:23;;;;;;;3.40;2.58;;;19.40;64.20;;;;;;5022960;28;20183;-70
2022/09/19 09:21:23;;;;;;;2.42;2.10;;;19.30;64.10;;;;;;5039335;28;20262;-70
2022/09/19 09:23:58;;;;;;;2.65;2.17;;;19.30;64.10;;;;;;5022878;28;20282;-70
2022/09/19 09:26:40;;;;;;;2.85;2.50;;;19.30;64.90;;;;;;5040589;28;20242;-70
2022/09/19 09:29:25;;;;;;;3.20;2.50;;;19.40;64.30;;;;;;5056731;28;20179;-70
2022/09/19 09:32:21;;;;;;;3.25;2.70;;;19.40;64.30;;;;;;5054862;28;20199;-70
2022/09/19 09:35:03;;;;;;;3.40;2.35;;;19.40;64.30;;;;;;5039957;28;20270;-70
2022/09/19 09:37:48;;;;;;;2.53;2.30;;;19.40;64.20;;;;;;5040212;28;20262;-70
2022/09/19 09:43:13;;;;;;;3.35;2.30;;;19.40;64.20;;;;;;5041807;28;20554;-70
2022/09/19 09:45:50;;;;;;;2.53;2.33;;;19.40;64.20;;;;;;5040511;28;20187;-70
2022/09/19 09:48:32;;;;;;;3.10;2.30;;;19.40;64.20;;;;;;5058912;28;20218;-70
2022/09/19 09:51:42;;;;;;;3.42;2.55;;;19.40;64.20;;;;;;5040906;28;20744;-70
2022/09/19 09:57:46;;;;;;;2.90;2.28;;;19.40;64.20;;;;;;5039855;28;20214;-70
2022/09/19 10:03:36;;;;;;;2.90;2.60;;;19.40;64.20;;;;;;5040317;28;20185;-69
2022/09/19 10:06:35;;;;;;;3.80;2.72;;;19.40;64.30;;;;;;5059831;28;20278;-70
2022/09/19 10:09:18;;;;;;;3.40;2.55;;;19.40;64.20;;;;;;5052086;28;20210;-70
2022/09/19 10:12:23;;;;;;;3.55;2.75;;;19.40;64.20;;;;;;5037234;28;20204;-69
2022/09/19 10:14:58;;;;;;;2.72;2.35;;;19.40;64.20;;;;;;5016941;28;20564;-69
2022/09/19 10:17:40;;;;;;;3.22;2.35;;;19.40;64.20;;;;;;5051875;28;20179;-69
2022/09/19 10:20:19;;;;;;;3.55;2.60;;;19.40;64.20;;;;;;5035376;28;20180;-69
2022/09/19 10:22:46;;;;;;;2.92;2.45;;;19.40;64.20;;;;;;5035109;28;20215;-69
2022/09/19 10:25:16;;;;;;;3.00;2.70;;;19.40;64.20;;;;;;5035492;28;20180;-69
2022/09/19 10:27:43;;;;;;;3.08;2.78;;;19.40;64.20;;;;;;5035748;28;20206;-69
2022/09/19 10:30:37;;;;;;;3.95;2.90;;;19.40;64.30;;;;;;5037320;28;20187;-70
2022/09/19 10:33:42;;;;;;;5.03;2.30;;;19.40;64.20;;;;;;5038024;28;20183;-70
2022/09/19 10:36:25;;;;;;;2.83;2.50;;;19.40;64.20;;;;;;5037289;28;20209;-70
2022/09/19 10:38:59;;;;;;;3.38;2.80;;;19.40;64.20;;;;;;5049216;28;20736;-70
2022/09/19 10:41:31;;;;;;;2.92;2.35;;;19.40;64.20;;;;;;5038166;28;20209;-70
2022/09/19 10:44:00;;;;;;;3.05;2.67;;;19.40;64.20;;;;;;5036365;28;20188;-69
2022/09/19 10:46:41;;;;;;;3.25;2.53;;;19.40;64.20;;;;;;5038492;28;20203;-70
2022/09/19 10:49:37;;;;;;;2.83;2.53;;;19.50;64.40;;;;;;5038577;28;20170;-70
2022/09/19 10:52:06;;;;;;;3.03;2.75;;;19.50;64.40;;;;;;5034477;28;20234;-70
2022/09/19 10:54:38;;;;;;;2.85;2.45;;;19.50;64.40;;;;;;5037031;28;20188;-71
2022/09/19 10:57:41;;;;;;;3.70;2.88;;;19.40;64.20;;;;;;5020550;28;20176;-70
2022/09/19 11:00:30;;;;;;;2.65;2.45;;;19.40;64.20;;;;;;5036434;28;20245;-70
2022/09/19 11:03:16;;;;;;;2.88;2.67;;;19.50;64.40;;;;;;5050576;28;20242;-70
2022/09/19 11:05:42;;;;;;;2.70;2.47;;;19.50;64.40;;;;;;5024384;28;20254;-70
2022/09/19 11:08:25;;;;;;;3.40;2.63;;;19.50;64.40;;;;;;5036503;28;20222;-70
2022/09/19 11:10:56;;;;;;;2.88;2.65;;;19.50;64.40;;;;;;5055639;28;20175;-71
2022/09/19 11:13:29;;;;;;;2.95;2.65;;;19.50;64.40;;;;;;5057623;28;20183;-70
2022/09/19 11:16:12;;;;;;;2.83;2.45;;;19.50;64.40;;;;;;5060999;28;20176;-70
2022/09/19 11:18:51;;;;;;;3.22;2.45;;;19.50;64.50;;;;;;5018995;28;20267;-70
2022/09/19 11:22:03;;;;;;;2.72;2.53;;;19.50;64.40;;;;;;5021115;28;20217;-70
2022/09/19 11:24:32;;;;;;;2.65;2.30;;;19.50;64.60;;;;;;5010445;28;20199;-70
2022/09/19 11:27:42;;;;;;;3.03;2.35;;;19.50;64.50;;;;;;5037071;28;20226;-69
2022/09/19 11:30:23;;;;;;;2.90;2.63;;;19.50;64.40;;;;;;5054098;28;20207;-69
2022/09/19 11:33:30;;;;;;;2.65;2.45;;;19.50;64.40;;;;;;5029837;28;20200;-69
2022/09/19 11:36:52;;;;;;;3.55;2.70;;;19.50;64.50;;;;;;5019843;28;20198;-70
2022/09/19 11:39:51;;;;;;;2.97;2.40;;;19.50;64.40;;;;;;5049435;28;20188;-69
2022/09/19 11:42:22;;;;;;;3.35;2.35;;;19.50;64.40;;;;;;5069360;28;20236;-70
2022/09/19 11:45:01;;;;;;;3.10;2.58;;;19.50;64.40;;;;;;5036900;28;20193;-70
2022/09/19 11:47:50;;;;;;;2.70;2.50;;;19.60;64.50;;;;;;5036109;28;20246;-70
2022/09/19 11:50:59;;;;;;;2.60;2.38;;;19.60;64.50;;;;;;5052090;28;20192;-70
2022/09/19 11:54:24;;;;;;;4.03;2.35;;;19.60;64.50;;;;;;5056458;28;20182;-70
2022/09/19 11:57:30;;;;;;;2.33;2.13;;;19.50;64.40;;;;;;5010088;28;20287;-70
2022/09/19 12:00:16;;;;;;;3.25;2.40;;;19.60;64.60;;;;;;5035745;28;20179;-70
2022/09/19 12:03:16;;;;;;;2.78;2.58;;;19.60;64.50;;;;;;5033900;28;20218;-69
2022/09/19 12:06:30;;;;;;;2.75;2.40;;;19.60;64.50;;;;;;5033721;28;20194;-69
2022/09/19 12:09:17;;;;;;;3.38;2.28;;;19.50;64.50;;;;;;5032727;28;20272;-69
2022/09/19 12:11:56;;;;;;;3.17;2.28;;;19.60;64.50;;;;;;5032761;28;20207;-69
2022/09/19 12:14:41;;;;;;;3.10;2.58;;;19.60;64.50;;;;;;5033864;28;20213;-69
2022/09/19 12:17:32;;;;;;;3.13;2.47;;;19.60;64.60;;;;;;5017714;28;20186;-70
2022/09/19 12:20:26;;;;;;;2.85;2.55;;;19.60;64.50;;;;;;5034032;28;20222;-69
2022/09/19 12:24:52;;;;;;;3.58;2.70;;;19.60;64.50;;;;;;5017883;28;20656;-69
2022/09/19 12:25:55;;;;;;;3.75;2.55;;;19.60;64.50;;;;;;5037498;28;20179;-69
2022/09/19 12:28:25;;;;;;;2.75;2.50;;;19.60;64.50;;;;;;5037421;28;20231;-69
2022/09/19 12:30:57;;;;;;;2.58;2.38;;;19.60;64.50;;;;;;5037442;28;20190;-69
2022/09/19 12:33:48;;;;;;;3.05;2.67;;;19.60;64.50;;;;;;5037677;28;20210;-69
2022/09/19 12:36:35;;;;;;;2.60;2.40;;;19.60;64.50;;;;;;5037654;28;20187;-69
2022/09/19 12:39:19;;;;;;;2.60;2.22;;;19.60;64.50;;;;;;5038685;28;20176;-69
2022/09/19 12:42:01;;;;;;;2.80;2.10;;;19.60;64.50;;;;;;5039793;28;20207;-69
2022/09/19 12:44:39;;;;;;;2.70;2.50;;;19.60;64.40;;;;;;5038602;28;20305;-69
2022/09/19 12:47:54;;;;;;;3.28;2.53;;;19.60;64.40;;;;;;5039296;28;20302;-69
2022/09/19 12:50:36;;;;;;;3.60;2.15;;;19.60;64.40;;;;;;5054636;28;20204;-70
2022/09/19 12:53:21;;;;;;;3.15;2.58;;;19.60;64.50;;;;;;5021535;28;20210;-70
2022/09/19 12:56:19;;;;;;;2.45;2.25;;;19.60;64.80;;;;;;5039259;28;20185;-70
2022/09/19 12:59:18;;;;;;;2.85;2.58;;;19.60;64.30;;;;;;5037980;28;20180;-69
2022/09/19 13:02:36;;;;;;;3.17;2.08;;;19.60;64.40;;;;;;5055013;28;20282;-69
2022/09/19 13:05:22;;;;;;;3.83;2.30;;;19.60;64.50;;;;;;5053713;28;20225;-69
2022/09/19 13:08:12;;;;;;;2.88;2.45;;;19.60;64.70;;;;;;5036824;28;20207;-69
2022/09/19 13:11:06;;;;;;;2.75;2.28;;;19.60;65.00;;;;;;5054727;28;20206;-70
2022/09/19 13:13:51;;;;;;;2.47;2.28;;;19.60;64.80;;;;;;5057080;28;20241;-69
2022/09/19 13:16:24;;;;;;;3.30;2.20;;;19.60;65.40;;;;;;5041360;28;20674;-70
2022/09/19 13:24:42;;;;;;;2.45;2.25;;;19.70;64.60;;;;;;5041504;28;20230;-70
2022/09/19 13:27:09;;;;;;;2.95;2.30;;;19.70;65.00;;;;;;5057891;28;20235;-69
2022/09/19 13:29:35;;;;;;;2.22;2.05;;;19.70;64.70;;;;;;5056659;28;20241;-70
2022/09/19 13:32:54;;;;;;;2.30;2.10;;;19.70;64.60;;;;;;5058220;28;20211;-70
2022/09/19 13:35:24;;;;;;;3.25;2.28;;;19.60;64.50;;;;;;5072017;28;20285;-70
2022/09/19 13:37:56;;;;;;;2.15;2.03;;;19.60;64.50;;;;;;5057080;28;20197;-70
2022/09/19 13:40:43;;;;;;;2.40;2.20;;;19.60;64.50;;;;;;5041378;28;20238;-69
2022/09/19 13:43:28;;;;;;;3.03;2.30;;;19.60;64.50;;;;;;5039990;28;20287;-69
2022/09/19 13:46:19;;;;;;;2.22;2.03;;;19.60;64.70;;;;;;5056490;28;20179;-70
2022/09/19 13:48:58;;;;;;;2.30;2.10;;;19.60;64.50;;;;;;5040303;28;20191;-70
2022/09/19 13:51:42;;;;;;;2.50;1.98;;;19.60;64.90;;;;;;5055810;28;20202;-70
2022/09/19 13:54:20;;;;;;;3.30;2.55;;;19.70;64.60;;;;;;5054965;28;20202;-70
2022/09/19 13:57:01;;;;;;;2.58;2.17;;;19.60;65.00;;;;;;5056141;28;20236;-70
2022/09/19 13:59:37;;;;;;;2.75;2.28;;;19.70;65.10;;;;;;5057564;28;20249;-70
2022/09/19 14:02:11;;;;;;;4.43;2.10;;;19.60;65.00;;;;;;5026780;28;20206;-70
2022/09/19 14:04:57;;;;;;;2.25;2.05;;;19.60;64.80;;;;;;5050974;28;20206;-70
2022/09/19 14:07:25;;;;;;;3.45;2.30;;;19.60;64.60;;;;;;5050835;28;20216;-70
2022/09/19 14:10:08;;;;;;;2.08;1.98;;;19.60;64.50;;;;;;5056915;28;20194;-70